createdAt,value
2022-10-23T00:02:54.492Z,7.19
2022-10-23T00:13:23.570Z,7.16
2022-10-23T00:16:03.685Z,7.20
2022-10-23T00:18:49.944Z,7.12
2022-10-23T00:21:25.227Z,7.12
2022-10-23T00:24:47.297Z,7.19
2022-10-23T00:27:22.482Z,7.13
2022-10-23T00:29:52.961Z,7.14
2022-10-23T00:32:20.550Z,7.12
2022-10-23T00:34:50.600Z,7.05
2022-10-23T00:37:18.125Z,7.01
2022-10-23T00:39:45.601Z,7.05
2022-10-23T00:42:18.938Z,6.90
2022-10-23T00:44:46.294Z,6.95
2022-10-23T00:47:16.998Z,6.95
2022-10-23T00:49:46.782Z,6.96
2022-10-23T00:52:14.399Z,6.97
2022-10-23T00:54:43.716Z,7.00
2022-10-23T00:57:14.096Z,7.03
2022-10-23T00:59:45.021Z,6.97
2022-10-23T01:02:18.275Z,6.99
2022-10-23T01:12:59.288Z,7.12
2022-10-23T01:20:18.684Z,7.09
2022-10-23T01:23:58.197Z,7.05
2022-10-23T01:30:48.679Z,6.91
2022-10-23T01:33:26.222Z,6.82
2022-10-23T01:36:01.775Z,6.76
2022-10-23T01:38:43.172Z,6.66
2022-10-23T01:41:28.676Z,6.52
2022-10-23T01:44:14.716Z,6.44
2022-10-23T01:46:45.368Z,6.27
2022-10-23T01:49:15.169Z,6.18
2022-10-23T01:51:50.736Z,6.18
2022-10-23T01:54:21.699Z,6.08
2022-10-23T01:56:51.418Z,6.04
2022-10-23T01:59:30.445Z,5.97
2022-10-23T02:02:03.300Z,5.97
2022-10-23T02:04:36.705Z,5.84
2022-10-23T02:07:07.152Z,5.81
2022-10-23T02:09:37.269Z,5.74
2022-10-23T02:12:19.744Z,5.64
2022-10-23T02:14:47.290Z,5.60
2022-10-23T02:17:27.897Z,5.55
2022-10-23T02:20:22.380Z,5.52
2022-10-23T02:23:05.456Z,5.52
2022-10-23T02:25:50.687Z,5.43
2022-10-23T02:28:27.622Z,5.38
2022-10-23T02:31:01.117Z,5.37
2022-10-23T02:33:33.286Z,5.37
2022-10-23T02:36:00.937Z,5.25
2022-10-23T02:38:45.278Z,5.35
2022-10-23T02:45:34.333Z,5.30
2022-10-23T03:00:46.098Z,5.08
2022-10-23T03:03:20.624Z,5.07
2022-10-23T03:05:51.493Z,5.12
2022-10-23T03:08:29.937Z,5.12
2022-10-23T03:10:57.651Z,5.07
2022-10-23T03:13:28.212Z,5.06
2022-10-23T03:15:55.640Z,4.97
2022-10-23T03:18:23.166Z,4.97
2022-10-23T03:20:51.994Z,4.98
2022-10-23T03:23:25.789Z,4.99
2022-10-23T03:25:56.536Z,4.94
2022-10-23T03:28:41.167Z,4.89
2022-10-23T03:31:08.744Z,4.92
2022-10-23T03:33:38.180Z,4.95
2022-10-23T03:36:13.275Z,4.93
2022-10-23T03:38:44.418Z,4.93
2022-10-23T03:41:11.890Z,4.83
2022-10-23T03:43:39.509Z,4.75
2022-10-23T03:46:09.960Z,4.77
2022-10-23T03:48:38.418Z,4.82
2022-10-23T03:51:06.741Z,4.76
2022-10-23T03:53:34.640Z,4.72
2022-10-23T03:56:59.728Z,4.82
2022-10-23T04:01:00.887Z,4.77
2022-10-23T04:12:23.563Z,4.53
2022-10-23T04:20:34.573Z,4.61
2022-10-23T04:23:42.730Z,4.56
2022-10-23T04:30:41.718Z,4.64
2022-10-23T04:33:22.814Z,4.63
2022-10-23T04:39:52.002Z,4.62
2022-10-23T04:42:30.756Z,4.70
2022-10-23T04:45:01.399Z,4.73
2022-10-23T04:47:31.585Z,4.72
2022-10-23T04:50:02.604Z,4.84
2022-10-23T04:52:57.409Z,4.85
2022-10-23T04:55:58.449Z,4.99
2022-10-23T04:58:48.897Z,4.98
2022-10-23T05:06:13.257Z,5.12
2022-10-23T05:22:22.155Z,5.57
2022-10-23T05:25:31.758Z,5.50
2022-10-23T05:29:42.072Z,5.64
2022-10-23T05:37:14.382Z,5.69
2022-10-23T05:43:59.487Z,5.84
2022-10-23T05:47:43.338Z,5.95
2022-10-23T05:50:28.565Z,5.85
2022-10-23T05:53:23.813Z,5.82
2022-10-23T05:56:05.868Z,5.83
2022-10-23T05:58:48.612Z,5.90
2022-10-23T06:01:46.500Z,6.01
2022-10-23T06:04:18.577Z,6.02
2022-10-23T06:07:22.728Z,6.03
2022-10-23T06:09:53.133Z,6.03
2022-10-23T06:12:23.621Z,6.09
2022-10-23T06:15:01.375Z,6.12
2022-10-23T06:17:49.292Z,6.14
2022-10-23T06:20:16.831Z,6.23
2022-10-23T06:22:49.604Z,6.20
2022-10-23T06:25:34.618Z,6.25
2022-10-23T06:28:36.794Z,6.23
2022-10-23T06:47:40.373Z,6.69
2022-10-23T06:50:31.787Z,6.50
2022-10-23T06:53:05.831Z,6.48
2022-10-23T06:55:43.190Z,6.50
2022-10-23T06:58:11.116Z,6.59
2022-10-23T07:00:55.358Z,6.59
2022-10-23T07:03:29.459Z,6.64
2022-10-23T07:06:24.789Z,6.79
2022-10-23T07:10:04.929Z,6.87
2022-10-23T07:12:54.402Z,6.76
2022-10-23T07:15:41.437Z,6.87
2022-10-23T07:19:03.350Z,6.93
2022-10-23T07:21:46.132Z,6.90
2022-10-23T07:24:38.556Z,6.83
2022-10-23T07:27:14.963Z,6.83
2022-10-23T07:29:43.502Z,6.86
2022-10-23T07:32:20.075Z,6.93
2022-10-23T07:35:09.107Z,6.89
2022-10-23T07:37:44.365Z,6.87
2022-10-23T07:40:15.227Z,6.86
2022-10-23T07:42:45.317Z,6.77
2022-10-23T07:45:15.341Z,6.72
2022-10-23T07:47:51.067Z,6.80
2022-10-23T07:50:22.184Z,6.79
2022-10-23T07:52:49.814Z,6.81
2022-10-23T07:55:22.489Z,6.83
2022-10-23T07:57:55.019Z,6.94
2022-10-23T08:00:56.269Z,6.91
2022-10-23T08:03:37.544Z,6.96
2022-10-23T08:06:05.234Z,6.95
2022-10-23T08:08:35.037Z,7.01
2022-10-23T08:11:05.058Z,7.00
2022-10-23T08:13:44.389Z,7.09
2022-10-23T08:16:12.668Z,7.18
2022-10-23T08:18:58.735Z,7.31
2022-10-23T08:21:31.960Z,7.29
2022-10-23T08:24:00.873Z,7.27
2022-10-23T08:26:29.553Z,7.35
2022-10-23T08:29:00.502Z,7.35
2022-10-23T08:31:31.538Z,7.22
2022-10-23T08:34:27.566Z,7.20
2022-10-23T08:37:00.851Z,7.24
2022-10-23T08:39:28.597Z,7.23
2022-10-23T08:42:22.250Z,7.33
2022-10-23T08:58:36.478Z,7.62
2022-10-23T09:10:45.996Z,7.74
2022-10-23T09:14:02.293Z,7.76
2022-10-23T09:17:46.424Z,7.71
2022-10-23T09:20:20.586Z,7.65
2022-10-23T09:22:50.049Z,7.63
2022-10-23T09:25:29.747Z,7.72
2022-10-23T09:28:01.608Z,7.66
2022-10-23T09:30:40.295Z,7.75
2022-10-23T09:33:24.877Z,7.80
2022-10-23T09:36:20.895Z,7.77
2022-10-23T09:39:26.920Z,7.82
2022-10-23T09:42:35.791Z,7.75
2022-10-23T09:50:02.142Z,7.78
2022-10-23T10:13:30.370Z,7.53
2022-10-23T10:21:00.530Z,7.63
2022-10-23T10:28:17.896Z,7.64
2022-10-23T10:44:26.996Z,7.58
2022-10-23T10:47:41.336Z,7.59
2022-10-23T10:50:44.066Z,7.46
2022-10-23T10:54:50.777Z,7.37
2022-10-23T11:12:58.382Z,7.23
2022-10-23T11:28:33.990Z,7.39
2022-10-23T11:36:11.228Z,7.32
2022-10-23T11:38:53.924Z,7.21
2022-10-23T11:42:05.343Z,7.24
2022-10-23T11:44:34.886Z,7.24
2022-10-23T11:47:27.034Z,7.27
2022-10-23T11:50:09.627Z,7.31
2022-10-23T11:53:12.619Z,7.18
2022-10-23T11:56:19.609Z,7.32
2022-10-23T11:58:48.907Z,7.27
2022-10-23T12:01:25.450Z,7.20
2022-10-23T12:04:04.799Z,7.23
2022-10-23T12:06:40.568Z,7.24
2022-10-23T12:09:46.469Z,7.30
2022-10-23T12:12:28.362Z,7.20
2022-10-23T12:15:19.199Z,7.19
2022-10-23T12:17:51.718Z,7.03
2022-10-23T12:20:48.252Z,7.10
2022-10-23T12:23:55.344Z,7.19
2022-10-23T12:26:55.339Z,7.23
2022-10-23T12:29:35.036Z,7.19
2022-10-23T12:32:28.929Z,7.24
2022-10-23T12:35:23.962Z,7.22
2022-10-23T12:38:18.396Z,7.32
2022-10-23T12:41:15.527Z,7.36
2022-10-23T12:43:53.692Z,7.29
2022-10-23T12:46:38.425Z,7.29
2022-10-23T12:49:19.978Z,7.37
2022-10-23T12:51:56.136Z,7.35
2022-10-23T12:54:27.244Z,7.28
2022-10-23T12:56:54.845Z,7.27
2022-10-23T12:59:37.200Z,7.32
2022-10-23T13:02:33.953Z,7.39
2022-10-23T13:05:09.113Z,7.32
2022-10-23T13:07:42.751Z,7.34
2022-10-23T13:10:16.418Z,7.33
2022-10-23T13:13:05.478Z,7.33
2022-10-23T13:15:41.541Z,7.39
2022-10-23T13:18:10.737Z,7.31
2022-10-23T13:20:41.975Z,7.41
2022-10-23T13:23:31.426Z,7.50
2022-10-23T13:26:24.749Z,7.47
2022-10-23T13:28:55.632Z,7.52
2022-10-23T13:31:32.716Z,7.55
2022-10-23T13:34:00.220Z,7.65
2022-10-23T13:36:30.015Z,7.69
2022-10-23T13:39:10.694Z,7.68
2022-10-23T13:41:46.706Z,7.78
2022-10-23T13:44:20.084Z,7.78
2022-10-23T13:46:48.547Z,7.77
2022-10-23T13:49:20.026Z,7.79
2022-10-23T13:51:57.911Z,7.77
2022-10-23T13:54:30.184Z,7.75
2022-10-23T13:57:00.701Z,7.75
2022-10-23T13:59:30.790Z,7.72
2022-10-23T14:02:00.803Z,7.80
2022-10-23T14:04:28.331Z,7.84
2022-10-23T14:06:58.716Z,7.85
2022-10-23T14:17:48.616Z,7.89
2022-10-23T14:20:24.323Z,7.86
2022-10-23T14:22:53.316Z,7.91
2022-10-23T14:25:20.787Z,7.84
2022-10-23T14:27:51.100Z,7.88
2022-10-23T14:30:18.805Z,7.92
2022-10-23T14:32:46.506Z,7.91
2022-10-23T14:35:25.667Z,7.95
2022-10-23T14:37:53.216Z,8.03
2022-10-23T14:40:23.656Z,7.98
2022-10-23T14:42:54.997Z,8.06
2022-10-23T14:45:24.702Z,8.08
2022-10-23T14:47:55.741Z,8.03
2022-10-23T14:50:24.840Z,8.04
2022-10-23T14:52:55.239Z,8.07
2022-10-23T14:55:22.750Z,8.06
2022-10-23T14:57:55.049Z,8.17
2022-10-23T15:00:28.712Z,8.14
2022-10-23T15:02:58.650Z,8.06
2022-10-23T15:05:26.236Z,7.94
2022-10-23T15:07:55.353Z,7.91
2022-10-23T15:10:25.351Z,7.92
2022-10-23T15:12:52.995Z,7.85
2022-10-23T15:15:22.797Z,7.83
2022-10-23T15:17:52.825Z,7.81
2022-10-23T15:20:20.289Z,7.87
2022-10-23T15:22:52.364Z,7.94
2022-10-23T15:25:19.922Z,7.95
2022-10-23T15:27:54.620Z,7.98
2022-10-23T15:30:22.314Z,7.96
2022-10-23T15:32:55.373Z,7.80
2022-10-23T15:35:25.116Z,7.81
2022-10-23T15:37:52.648Z,7.83
2022-10-23T15:40:20.055Z,7.85
2022-10-23T15:42:49.853Z,7.81
2022-10-23T15:45:17.602Z,7.84
2022-10-23T15:47:45.305Z,7.74
2022-10-23T15:50:20.405Z,7.77
2022-10-23T15:52:51.946Z,7.66
2022-10-23T15:55:23.201Z,7.70
2022-10-23T15:57:50.710Z,7.68
2022-10-23T16:00:20.477Z,7.66
2022-10-23T16:02:48.412Z,7.73
2022-10-23T16:05:18.115Z,7.73
2022-10-23T16:07:48.648Z,7.80
2022-10-23T16:10:25.016Z,7.82
2022-10-23T16:12:52.627Z,7.89
2022-10-23T16:15:20.132Z,7.87
2022-10-23T16:17:50.162Z,7.84
2022-10-23T16:20:22.916Z,7.90
2022-10-23T16:23:00.209Z,7.89
2022-10-23T16:25:30.341Z,7.94
2022-10-23T16:28:00.095Z,7.99
2022-10-23T16:30:27.636Z,8.02
2022-10-23T16:32:55.220Z,8.08
2022-10-23T16:35:23.308Z,8.01
2022-10-23T16:38:05.820Z,8.07
2022-10-23T16:40:33.283Z,8.05
2022-10-23T16:43:27.701Z,8.04
2022-10-23T16:46:12.804Z,8.12
2022-10-23T16:48:40.860Z,8.07
2022-10-23T16:51:13.809Z,8.13
2022-10-23T16:53:48.613Z,8.20
2022-10-23T16:56:21.334Z,8.25
2022-10-23T16:58:51.059Z,8.24
2022-10-23T17:01:23.732Z,8.27
2022-10-23T17:03:52.768Z,8.29
2022-10-23T17:06:32.659Z,8.38
2022-10-23T17:09:02.076Z,8.29
2022-10-23T17:11:35.203Z,8.34
2022-10-23T17:14:06.761Z,8.32
2022-10-23T17:16:41.030Z,8.37
2022-10-23T17:19:20.963Z,8.44
2022-10-23T17:21:58.399Z,8.44
2022-10-23T17:24:30.879Z,8.47
2022-10-23T17:27:01.378Z,8.39
2022-10-23T17:29:28.958Z,8.38
2022-10-23T17:31:56.606Z,8.41
2022-10-23T17:34:26.472Z,8.37
2022-10-23T17:36:55.259Z,8.37
2022-10-23T17:39:29.432Z,8.38
2022-10-23T17:42:34.190Z,8.46
2022-10-23T17:45:47.899Z,8.47
2022-10-23T17:48:23.897Z,8.40
2022-10-23T17:51:42.087Z,8.43
2022-10-23T17:54:18.100Z,8.36
2022-10-23T17:57:03.373Z,8.40
2022-10-23T18:04:03.662Z,8.37
2022-10-23T18:07:54.149Z,8.34
2022-10-23T18:10:39.181Z,8.34
2022-10-23T18:13:09.759Z,8.35
2022-10-23T18:15:39.720Z,8.33
2022-10-23T18:18:17.069Z,8.25
2022-10-23T18:20:44.949Z,8.29
2022-10-23T18:23:12.423Z,8.32
2022-10-23T18:25:43.142Z,8.32
2022-10-23T18:28:10.757Z,8.36
2022-10-23T18:30:40.747Z,8.34
2022-10-23T18:33:08.295Z,8.43
2022-10-23T18:35:38.233Z,8.48
2022-10-23T18:38:05.879Z,8.47
2022-10-23T18:40:36.510Z,8.52
2022-10-23T18:43:09.046Z,8.47
2022-10-23T18:45:42.861Z,8.54
2022-10-23T18:48:10.415Z,8.47
2022-10-23T18:50:38.511Z,8.47
2022-10-23T18:53:09.021Z,8.54
2022-10-23T18:55:45.565Z,8.58
2022-10-23T18:58:13.126Z,8.56
2022-10-23T19:00:42.258Z,8.52
2022-10-23T19:03:16.370Z,8.54
2022-10-23T19:05:46.071Z,8.54
2022-10-23T19:08:13.979Z,8.52
2022-10-23T19:10:52.968Z,8.53
2022-10-23T19:13:22.711Z,8.55
2022-10-23T19:15:50.172Z,8.56
2022-10-23T19:18:27.344Z,8.57
2022-10-23T19:20:57.203Z,8.62
2022-10-23T19:23:30.212Z,8.58
2022-10-23T19:26:05.221Z,8.62
2022-10-23T19:28:37.685Z,8.59
2022-10-23T19:31:09.968Z,8.62
2022-10-23T19:33:39.096Z,8.63
2022-10-23T19:36:11.142Z,8.70
2022-10-23T19:38:42.522Z,8.73
2022-10-23T19:41:10.101Z,8.69
2022-10-23T19:43:50.692Z,8.70
2022-10-23T19:46:22.148Z,8.66
2022-10-23T19:48:49.740Z,8.70
2022-10-23T19:51:29.751Z,8.69
2022-10-23T19:54:00.706Z,8.67
2022-10-23T19:56:32.767Z,8.64
2022-10-23T19:59:00.297Z,8.67
2022-10-23T20:01:37.584Z,8.64
2022-10-23T20:04:14.461Z,8.71
2022-10-23T20:06:41.993Z,8.64
2022-10-23T20:09:10.087Z,8.59
2022-10-23T20:11:39.513Z,8.59
2022-10-23T20:14:07.248Z,8.61
2022-10-23T20:16:39.197Z,8.60
2022-10-23T20:19:11.952Z,8.69
2022-10-23T20:21:42.045Z,8.65
2022-10-23T20:24:11.349Z,8.63
2022-10-23T20:26:44.265Z,8.66
2022-10-23T20:29:13.770Z,8.69
2022-10-23T20:31:44.844Z,8.65
2022-10-23T20:34:16.779Z,8.63
2022-10-23T20:44:58.215Z,8.78
2022-10-23T20:48:12.371Z,8.62
2022-10-23T20:51:22.117Z,8.70
2022-10-23T20:54:26.030Z,8.64
2022-10-23T20:57:30.361Z,8.55
2022-10-23T21:00:05.701Z,8.61
2022-10-23T21:03:31.436Z,8.67
2022-10-23T21:07:04.484Z,8.64
2022-10-23T21:09:30.905Z,8.53
2022-10-23T21:12:01.166Z,8.56
2022-10-23T21:14:30.953Z,8.52
2022-10-23T21:16:58.458Z,8.53
2022-10-23T21:19:26.025Z,8.51
2022-10-23T21:21:54.509Z,8.59
2022-10-23T21:24:24.900Z,8.55
2022-10-23T21:26:57.681Z,8.58
2022-10-23T21:29:29.839Z,8.59
2022-10-23T21:32:02.106Z,8.51
2022-10-23T21:34:30.232Z,8.49
2022-10-23T21:37:13.165Z,8.48
2022-10-23T21:39:44.226Z,8.53
2022-10-23T21:42:15.162Z,8.47
2022-10-23T21:44:47.377Z,8.48
2022-10-23T21:47:22.195Z,8.68
2022-10-23T21:49:49.640Z,8.49
2022-10-23T21:52:19.910Z,8.48
2022-10-23T21:54:52.809Z,8.46
2022-10-23T21:57:20.993Z,8.40
2022-10-23T21:59:51.001Z,8.35
2022-10-23T22:02:21.440Z,8.30
2022-10-23T22:04:51.569Z,8.36
2022-10-23T22:07:21.608Z,8.35
2022-10-23T22:09:49.161Z,8.31
2022-10-23T22:12:16.629Z,8.33
2022-10-23T22:14:47.204Z,8.35
2022-10-23T22:17:14.869Z,8.30
2022-10-23T22:19:44.939Z,8.26
2022-10-23T22:22:12.569Z,8.27
2022-10-23T22:24:40.031Z,8.22
2022-10-23T22:27:07.478Z,8.13
2022-10-23T22:29:37.466Z,8.13
2022-10-23T22:32:05.228Z,8.14
2022-10-23T22:34:51.700Z,8.14
2022-10-23T22:37:21.910Z,8.12
2022-10-23T22:39:52.579Z,8.08
2022-10-23T22:42:20.920Z,8.08
2022-10-23T22:44:50.683Z,8.08
2022-10-23T22:47:20.460Z,8.06
2022-10-23T22:49:51.417Z,8.07
2022-10-23T22:52:21.405Z,8.07
2022-10-23T22:54:49.904Z,8.00
2022-10-23T22:57:17.453Z,8.03
2022-10-23T22:59:47.077Z,8.10
2022-10-23T23:02:14.562Z,8.07
2022-10-23T23:04:41.998Z,8.06
2022-10-23T23:07:12.180Z,8.11
2022-10-23T23:09:47.911Z,8.09
2022-10-23T23:12:20.700Z,8.10
2022-10-23T23:14:58.997Z,8.11
2022-10-23T23:17:26.492Z,8.01
2022-10-23T23:19:54.085Z,8.05
2022-10-23T23:22:21.776Z,8.07
2022-10-23T23:24:58.201Z,8.07
2022-10-23T23:27:27.205Z,8.09
2022-10-23T23:29:59.972Z,8.08
2022-10-23T23:32:27.545Z,8.08
2022-10-23T23:34:59.385Z,8.07
2022-10-23T23:37:27.068Z,8.10
2022-10-23T23:40:04.533Z,8.07
2022-10-23T23:42:32.114Z,8.05
2022-10-23T23:45:02.819Z,8.06
2022-10-23T23:47:41.515Z,8.10
2022-10-23T23:50:11.188Z,8.14
2022-10-23T23:52:38.747Z,8.13
2022-10-23T23:55:06.554Z,8.11
2022-10-23T23:57:34.166Z,8.04
